Time;durP1;ratioP1;P1;durP2;ratioP2;P2;SDS_P1;SDS_P2;PMS_P1;PMS_P2;Temp;Humidity;BMP_temperature;BMP_pressure;BME280_temperature;BME280_humidity;BME280_pressure;Samples;Min_cycle;Max_cycle;Signal;HPM_P1;HPM_P2
2022/02/10 00:15:13;;;;;;;12.63;6.93;;;;;;;;;;5053157;28;20589;-74
2022/02/10 00:22:57;;;;;;;11.40;6.45;;;;;;;;;;5053056;28;20025;-74
2022/02/10 00:36:25;;;;;;;9.70;5.75;;;;;;;;;;5057126;28;20043;-74
2022/02/10 00:39:01;;;;;;;;;;;;;;;;;;5057325;28;20471;-72
2022/02/10 00:41:27;;;;;;;9.10;5.90;;;;;;;;;;5056752;28;20371;-75
2022/02/10 00:43:54;;;;;;;14.82;7.38;;;;;;;;;;5056024;28;20013;-74
2022/02/10 00:46:19;;;;;;;13.40;6.65;;;;;;;;;;5057023;28;20061;-72
2022/02/10 00:48:46;;;;;;;13.90;7.47;;;;;;;;;;5057012;28;20063;-74
2022/02/10 00:51:12;;;;;;;16.38;8.07;;;;;;;;;;5056870;28;20029;-74
2022/02/10 00:53:40;;;;;;;18.20;9.40;;;;;;;;;;5056858;28;20059;-74
2022/02/10 00:56:08;;;;;;;14.10;7.72;;;;;;;;;;5055627;28;20103;-74
2022/02/10 00:58:35;;;;;;;10.77;7.00;;;;;;;;;;5055319;28;20033;-75
2022/02/10 01:30:32;;;;;;;14.15;8.05;;;;;;;;;;5056040;28;20028;-74
2022/02/10 01:32:58;;;;;;;12.13;7.60;;;;;;;;;;5056122;28;20107;-71
2022/02/10 01:35:25;;;;;;;12.25;7.47;;;;;;;;;;5054413;28;20060;-71
2022/02/10 01:37:51;;;;;;;13.63;8.20;;;;;;;;;;5054562;28;20115;-72
2022/02/10 01:40:25;;;;;;;11.13;7.38;;;;;;;;;;5070968;28;20041;-71
2022/02/10 02:04:20;;;;;;;12.93;6.68;;;;;;;;;;5055825;28;20037;-69
2022/02/10 02:06:47;;;;;;;8.90;6.22;;;;;;;;;;5055864;28;20090;-75
2022/02/10 02:09:15;;;;;;;8.50;6.18;;;;;;;;;;5055666;28;20037;-74
2022/02/10 02:11:41;;;;;;;9.27;6.60;;;;;;;;;;5054276;28;20027;-72
2022/02/10 02:14:08;;;;;;;8.68;6.50;;;;;;;;;;5055277;28;20037;-74
2022/02/10 02:16:35;;;;;;;11.52;7.18;;;;;;;;;;5054856;28;20045;-74
2022/02/10 02:19:00;;;;;;;9.50;6.25;;;;;;;;;;5055265;28;20021;-71
2022/02/10 02:21:27;;;;;;;11.68;7.35;;;;;;;;;;5053730;28;20051;-73
2022/02/10 02:23:52;;;;;;;10.88;6.93;;;;;;;;;;5053727;28;20066;-72
2022/02/10 02:26:23;;;;;;;10.15;6.70;;;;;;;;;;5054319;28;20371;-73
2022/02/10 02:28:53;;;;;;;13.57;7.80;;;;;;;;;;5053968;28;20104;-72
2022/02/10 02:31:23;;;;;;;10.45;7.28;;;;;;;;;;5053494;28;20036;-73
2022/02/10 03:06:22;;;;;;;12.95;8.60;;;;;;;;;;5054565;28;20039;-73
2022/02/10 03:08:52;;;;;;;11.88;7.88;;;;;;;;;;5053072;28;20132;-73
2022/02/10 03:11:18;;;;;;;10.40;7.63;;;;;;;;;;5052803;28;20076;-69
2022/02/10 03:14:01;;;;;;;13.90;7.97;;;;;;;;;;5054005;28;20035;-69
2022/02/10 03:19:28;;;;;;;;;;;;;;;;;;5054277;28;20140;-69
2022/02/10 03:22:08;;;;;;;11.43;8.27;;;;;;;;;;5054001;28;20394;-69
2022/02/10 04:08:13;;;;;;;15.50;9.95;;;;;;;;;;5053504;28;20037;-72
2022/02/10 04:13:24;;;;;;;17.13;9.88;;;;;;;;;;5053102;28;20039;-71
2022/02/10 04:31:42;;;;;;;16.02;10.18;;;;;;;;;;5052930;28;20033;-72
2022/02/10 05:20:08;;;;;;;25.10;12.75;;;;;;;;;;5021422;28;20158;-73
2022/02/10 05:33:26;;;;;;;20.15;10.23;;;;;;;;;;5054755;28;20037;-72
2022/02/10 05:35:57;;;;;;;15.50;8.60;;;;;;;;;;5056022;28;20464;-72
2022/02/10 05:38:29;;;;;;;;;;;;;;;;;;5056389;28;20029;-71
2022/02/10 05:43:47;;;;;;;14.10;8.80;;;;;;;;;;5055760;28;20383;-72
2022/02/10 05:59:49;;;;;;;14.77;8.80;;;;;;;;;;5075399;28;20013;-71
2022/02/10 07:10:08;;;;;;;11.98;7.80;;;;;;;;;;5074211;28;20028;-71
2022/02/10 08:55:37;;;;;;;13.10;8.70;;;;;;;;;;5076619;28;20482;-72
2022/02/10 09:06:16;;;;;;;12.32;7.95;;;;;;;;;;5075074;28;20063;-72
2022/02/10 10:01:43;;;;;;;12.15;8.50;;;;;;;;;;5073743;28;20424;-72
2022/02/10 10:04:21;;;;;;;12.30;8.10;;;;;;;;;;5075353;28;20386;-72
2022/02/10 10:06:59;;;;;;;11.50;8.60;;;;;;;;;;5075230;28;20028;-72
2022/02/10 10:56:49;;;;;;;7.25;5.15;;;;;;;;;;5072932;28;20058;-71
2022/02/10 10:59:34;;;;;;;8.75;5.40;;;;;;;;;;5073966;28;20074;-71
2022/02/10 11:38:37;;;;;;;7.07;4.38;;;;;;;;;;5073466;28;20024;-72
2022/02/10 12:37:07;;;;;;;3.85;3.28;;;;;;;;;;5076797;28;20421;-72
2022/02/10 12:40:12;;;;;;;2.70;2.28;;;;;;;;;;5076890;28;20059;-72
2022/02/10 14:13:41;;;;;;;5.43;3.50;;;;;;;;;;5075549;28;20028;-71
2022/02/10 14:16:26;;;;;;;5.47;3.08;;;;;;;;;;5073482;28;20459;-70
2022/02/10 14:18:56;;;;;;;4.22;3.55;;;;;;;;;;5075371;28;20025;-71
2022/02/10 14:21:31;;;;;;;3.33;3.03;;;;;;;;;;5075353;28;20059;-70
2022/02/10 14:28:53;;;;;;;7.53;3.67;;;;;;;;;;5075090;28;20032;-70
2022/02/10 14:31:19;;;;;;;4.97;3.72;;;;;;;;;;5074827;28;20017;-71
2022/02/10 14:33:46;;;;;;;5.20;3.53;;;;;;;;;;5074976;28;20032;-71
2022/02/10 14:36:18;;;;;;;5.68;3.33;;;;;;;;;;5074932;28;20451;-71
2022/02/10 15:51:51;;;;;;;7.55;4.40;;;;;;;;;;5053536;28;20044;-70
2022/02/10 16:10:46;;;;;;;6.60;4.63;;;;;;;;;;5052374;28;20048;-71
2022/02/10 16:18:46;;;;;;;12.10;7.10;;;;;;;;;;5053406;28;20037;-71
2022/02/10 16:21:12;;;;;;;15.13;9.45;;;;;;;;;;5052005;28;20033;-70
2022/02/10 16:23:38;;;;;;;33.03;17.00;;;;;;;;;;5052362;28;20135;-71
2022/02/10 16:26:13;;;;;;;25.67;14.40;;;;;;;;;;5053355;28;20021;-70
2022/02/10 16:28:40;;;;;;;16.80;8.90;;;;;;;;;;5068548;28;20040;-70
2022/02/10 16:31:06;;;;;;;14.73;8.07;;;;;;;;;;5052795;28;20414;-71
2022/02/10 16:33:33;;;;;;;15.98;8.35;;;;;;;;;;5053209;28;20021;-71
2022/02/10 16:35:59;;;;;;;22.23;12.90;;;;;;;;;;5053087;28;20013;-70
2022/02/10 16:38:27;;;;;;;31.25;14.93;;;;;;;;;;5053081;28;20033;-67
2022/02/10 16:40:55;;;;;;;20.27;9.98;;;;;;;;;;5052916;28;20375;-66
2022/02/10 16:43:21;;;;;;;28.70;13.27;;;;;;;;;;5053030;28;20086;-66
2022/02/10 16:45:46;;;;;;;27.30;11.60;;;;;;;;;;5068851;28;20029;-69
2022/02/10 16:48:12;;;;;;;69.38;27.88;;;;;;;;;;5053271;28;20353;-69
2022/02/10 16:50:39;;;;;;;84.32;36.28;;;;;;;;;;5052885;28;20040;-69
2022/02/10 16:53:10;;;;;;;39.97;18.65;;;;;;;;;;5053026;28;20550;-69
2022/02/10 17:03:47;;;;;;;28.15;14.63;;;;;;;;;;5052743;28;19952;-70
2022/02/10 17:19:46;;;;;;;27.60;13.00;;;;;;;;;;5054721;28;20029;-70
2022/02/10 17:25:10;;;;;;;23.60;13.20;;;;;;;;;;5056065;28;20041;-70
2022/02/10 17:27:42;;;;;;;24.67;13.07;;;;;;;;;;5055312;28;20037;-70
2022/02/10 17:33:04;;;;;;;31.83;17.58;;;;;;;;;;5055860;28;20067;-70
2022/02/10 17:35:47;;;;;;;33.50;17.30;;;;;;;;;;5054773;28;20044;-70
2022/02/10 17:44:04;;;;;;;25.92;13.05;;;;;;;;;;5056173;28;20115;-75
2022/02/10 17:52:07;;;;;;;18.17;10.32;;;;;;;;;;5055938;28;20041;-71
2022/02/10 17:54:33;;;;;;;17.95;10.25;;;;;;;;;;5055893;28;20098;-70
2022/02/10 17:56:58;;;;;;;19.73;10.65;;;;;;;;;;5055536;28;20467;-70
2022/02/10 17:59:24;;;;;;;19.95;10.95;;;;;;;;;;5054540;28;20475;-70
2022/02/10 18:01:50;;;;;;;18.63;10.23;;;;;;;;;;5055538;28;20025;-71
2022/02/10 18:04:17;;;;;;;19.75;11.90;;;;;;;;;;5055160;28;20467;-71
2022/02/10 18:06:45;;;;;;;19.85;11.75;;;;;;;;;;5055522;28;20029;-71
2022/02/10 18:17:19;;;;;;;23.88;12.80;;;;;;;;;;5053709;28;20048;-70
2022/02/10 18:19:50;;;;;;;22.52;12.75;;;;;;;;;;5055536;28;20041;-71
2022/02/10 19:09:55;;;;;;;22.30;10.65;;;;;;;;;;5054535;28;20474;-70
2022/02/10 19:12:29;;;;;;;22.40;10.52;;;;;;;;;;5054500;28;20047;-70
2022/02/10 19:15:04;;;;;;;50.55;19.17;;;;;;;;;;5069819;28;20367;-70
2022/02/10 19:17:33;;;;;;;69.95;23.60;;;;;;;;;;5053728;28;20045;-70
2022/02/10 19:19:59;;;;;;;77.65;30.10;;;;;;;;;;5053880;28;20060;-69
2022/02/10 19:22:26;;;;;;;26.00;12.68;;;;;;;;;;5052786;28;20052;-70
2022/02/10 19:24:53;;;;;;;24.30;11.60;;;;;;;;;;5054073;28;20079;-70
2022/02/10 19:27:19;;;;;;;43.42;21.23;;;;;;;;;;5053807;28;20108;-70
2022/02/10 19:29:45;;;;;;;25.27;10.93;;;;;;;;;;5052467;28;20033;-69
2022/02/10 19:32:14;;;;;;;23.17;11.07;;;;;;;;;;5052382;28;20113;-70
2022/02/10 19:34:41;;;;;;;16.38;8.73;;;;;;;;;;5053511;28;20083;-69
2022/02/10 19:37:15;;;;;;;18.67;9.43;;;;;;;;;;5053603;28;20049;-67
2022/02/10 19:39:51;;;;;;;14.90;9.15;;;;;;;;;;5053698;28;20459;-72
2022/02/10 19:42:23;;;;;;;19.50;9.00;;;;;;;;;;5053846;28;20079;-68
2022/02/10 19:44:57;;;;;;;17.23;9.25;;;;;;;;;;5053665;28;20041;-69
2022/02/10 19:47:27;;;;;;;14.40;9.27;;;;;;;;;;5053724;28;20029;-72
2022/02/10 19:49:53;;;;;;;;;;;;;;;;;;5069273;28;20105;-72
2022/02/10 19:52:19;;;;;;;12.07;7.97;;;;;;;;;;5052287;28;19913;-71
2022/02/10 19:54:51;;;;;;;16.00;9.23;;;;;;;;;;5053945;28;20410;-71
2022/02/10 19:57:18;;;;;;;16.95;8.77;;;;;;;;;;5069114;28;20064;-72
2022/02/10 19:59:44;;;;;;;12.57;8.05;;;;;;;;;;5053300;28;20021;-71
2022/02/10 20:02:10;;;;;;;14.68;8.43;;;;;;;;;;5053424;28;20021;-71
2022/02/10 20:04:36;;;;;;;15.68;8.02;;;;;;;;;;5053319;28;20387;-71
2022/02/10 20:07:01;;;;;;;12.95;8.15;;;;;;;;;;5053112;28;20127;-71
2022/02/10 20:09:27;;;;;;;12.68;7.97;;;;;;;;;;5052148;28;20037;-71
2022/02/10 20:11:54;;;;;;;16.08;9.10;;;;;;;;;;5052948;28;20099;-71
2022/02/10 20:14:23;;;;;;;12.63;8.23;;;;;;;;;;5053640;28;20045;-71
2022/02/10 20:16:49;;;;;;;14.82;9.65;;;;;;;;;;5051660;28;20048;-71
2022/02/10 20:19:15;;;;;;;14.48;8.25;;;;;;;;;;5052959;28;20032;-71
2022/02/10 20:21:40;;;;;;;14.68;8.50;;;;;;;;;;5051792;28;20021;-71
2022/02/10 20:24:06;;;;;;;12.73;7.93;;;;;;;;;;5052173;28;20100;-71
2022/02/10 20:26:32;;;;;;;13.80;7.60;;;;;;;;;;5052133;28;20113;-71
2022/02/10 20:28:58;;;;;;;16.80;9.82;;;;;;;;;;5052894;28;20037;-71
2022/02/10 20:31:24;;;;;;;19.33;11.05;;;;;;;;;;5053115;28;20468;-70
2022/02/10 20:33:50;;;;;;;17.83;8.82;;;;;;;;;;5068544;28;20471;-71
2022/02/10 20:36:18;;;;;;;14.40;7.95;;;;;;;;;;5053040;28;20044;-71
2022/02/10 20:38:47;;;;;;;14.40;8.45;;;;;;;;;;5048382;28;20387;-71
2022/02/10 20:41:16;;;;;;;13.75;8.68;;;;;;;;;;5050024;28;20025;-71
2022/02/10 20:43:43;;;;;;;18.17;9.52;;;;;;;;;;5053147;28;20056;-71
2022/02/10 20:46:12;;;;;;;18.02;10.05;;;;;;;;;;5052637;28;20179;-71
2022/02/10 20:48:39;;;;;;;14.50;8.75;;;;;;;;;;5056843;28;20021;-71
2022/02/10 20:51:07;;;;;;;17.90;9.48;;;;;;;;;;5055617;28;20029;-71
2022/02/10 20:53:35;;;;;;;15.93;8.20;;;;;;;;;;5055742;28;20012;-71
2022/02/10 20:56:03;;;;;;;12.48;7.50;;;;;;;;;;5056612;28;20040;-71
2022/02/10 20:58:29;;;;;;;15.05;8.23;;;;;;;;;;5056457;28;20072;-71
2022/02/10 21:00:58;;;;;;;10.02;6.40;;;;;;;;;;5072039;28;20036;-70
2022/02/10 21:03:26;;;;;;;11.70;6.75;;;;;;;;;;5056496;28;20079;-70
2022/02/10 21:06:00;;;;;;;10.65;6.88;;;;;;;;;;5071420;28;20052;-71
2022/02/10 21:11:06;;;;;;;13.32;6.25;;;;;;;;;;5056903;28;20100;-71
2022/02/10 21:13:32;;;;;;;9.95;6.22;;;;;;;;;;5056574;28;20024;-70
2022/02/10 21:15:58;;;;;;;8.15;5.70;;;;;;;;;;5056267;28;20120;-72
2022/02/10 21:18:25;;;;;;;7.35;5.30;;;;;;;;;;5055178;28;20535;-70
2022/02/10 21:20:56;;;;;;;12.90;7.00;;;;;;;;;;5054985;28;20028;-70
2022/02/10 21:23:27;;;;;;;9.85;5.93;;;;;;;;;;5056685;28;20028;-69
2022/02/10 21:25:55;;;;;;;9.43;5.63;;;;;;;;;;5056370;28;20029;-69
2022/02/10 21:28:26;;;;;;;10.85;6.03;;;;;;;;;;5054993;28;20017;-70
2022/02/10 21:30:54;;;;;;;;;;;;;;;;;;5056763;28;20032;-69
2022/02/10 21:34:12;;;;;;;10.48;6.03;;;;;;;;;;5071776;28;19904;-71
2022/02/10 21:38:59;;;;;;;9.88;6.68;;;;;;;;;;5055045;28;20055;-71
2022/02/10 22:00:13;;;;;;;7.85;5.47;;;;;;;;;;5054179;28;20060;-71
2022/02/10 22:21:08;;;;;;;12.27;6.75;;;;;;;;;;5055179;28;20020;-72
2022/02/10 22:23:36;;;;;;;10.43;6.35;;;;;;;;;;5054945;28;20048;-70
2022/02/10 22:26:06;;;;;;;12.88;6.95;;;;;;;;;;5055186;28;20021;-71
2022/02/10 22:32:08;;;;;;;11.73;7.05;;;;;;;;;;5053799;28;20399;-71
2022/02/10 22:36:37;;;;;;;10.32;6.00;;;;;;;;;;5053826;28;20392;-71
2022/02/10 22:39:03;;;;;;;11.00;6.60;;;;;;;;;;5054762;28;20037;-70
2022/02/10 22:41:29;;;;;;;10.52;6.28;;;;;;;;;;5053371;28;20017;-70
2022/02/10 22:43:55;;;;;;;10.13;6.72;;;;;;;;;;5055090;28;20033;-71
2022/02/10 22:46:21;;;;;;;8.73;6.68;;;;;;;;;;5054872;28;20028;-70
2022/02/10 22:48:48;;;;;;;8.95;5.25;;;;;;;;;;5070403;28;20574;-73
2022/02/10 22:51:18;;;;;;;8.98;6.28;;;;;;;;;;5054501;28;20388;-72
2022/02/10 22:53:43;;;;;;;6.07;5.03;;;;;;;;;;5054446;28;20133;-71
2022/02/10 22:56:12;;;;;;;7.68;5.70;;;;;;;;;;5054938;28;20314;-70
2022/02/10 22:58:39;;;;;;;6.63;5.32;;;;;;;;;;5069904;28;20471;-70
2022/02/10 23:01:05;;;;;;;9.13;5.97;;;;;;;;;;5054653;28;20025;-70
2022/02/10 23:03:36;;;;;;;8.30;5.38;;;;;;;;;;5054788;28;20044;-70
2022/02/10 23:06:02;;;;;;;6.50;5.22;;;;;;;;;;5054568;28;20367;-71
2022/02/10 23:08:28;;;;;;;8.10;5.60;;;;;;;;;;5053802;28;20478;-70
2022/02/10 23:10:54;;;;;;;7.45;5.53;;;;;;;;;;5054409;28;20028;-70
2022/02/10 23:13:26;;;;;;;7.40;5.43;;;;;;;;;;5054278;28;20029;-70
2022/02/10 23:15:52;;;;;;;7.07;5.50;;;;;;;;;;5053656;28;20049;-71
2022/02/10 23:18:19;;;;;;;8.68;5.32;;;;;;;;;;5054163;28;20040;-71
2022/02/10 23:20:45;;;;;;;8.35;5.13;;;;;;;;;;5053853;28;20025;-70
2022/02/10 23:23:12;;;;;;;5.80;5.20;;;;;;;;;;5053090;28;20059;-70
2022/02/10 23:25:38;;;;;;;6.63;5.70;;;;;;;;;;5069505;28;20070;-71
2022/02/10 23:28:05;;;;;;;8.13;5.65;;;;;;;;;;5053797;28;20017;-70
2022/02/10 23:30:31;;;;;;;7.10;5.15;;;;;;;;;;5052646;28;20044;-70
2022/02/10 23:33:03;;;;;;;8.05;5.40;;;;;;;;;;5052478;28;20025;-71
2022/02/10 23:38:15;;;;;;;8.40;4.85;;;;;;;;;;5053833;28;20029;-70
2022/02/10 23:41:49;;;;;;;5.95;4.85;;;;;;;;;;5053690;28;20021;-71
2022/02/10 23:43:29;;;;;;;5.32;4.82;;;;;;;;;;5063269;28;20044;-72
2022/02/10 23:45:58;;;;;;;7.07;5.03;;;;;;;;;;5053859;28;20009;-71
2022/02/10 23:48:26;;;;;;;7.50;5.85;;;;;;;;;;5053878;28;20021;-71
2022/02/10 23:50:51;;;;;;;6.72;5.07;;;;;;;;;;5053341;28;20025;-75
2022/02/10 23:53:17;;;;;;;7.88;4.93;;;;;;;;;;5053657;28;20047;-75
2022/02/10 23:55:45;;;;;;;7.22;5.05;;;;;;;;;;5053659;28;20025;-74
2022/02/10 23:58:24;;;;;;;8.15;5.88;;;;;;;;;;5053486;28;20037;-74
